createdAt,value
2018-07-20T00:00:49.916Z,17.57
2018-07-20T00:01:49.572Z,17.56
2018-07-20T00:02:50.541Z,17.59
2018-07-20T00:03:50.576Z,17.57
2018-07-20T00:04:50.306Z,17.54
2018-07-20T00:05:50.243Z,17.56
2018-07-20T00:06:49.950Z,17.56
2018-07-20T00:07:49.668Z,17.52
2018-07-20T00:08:49.450Z,17.52
2018-07-20T00:10:10.711Z,17.52
2018-07-20T00:11:32.543Z,17.49
2018-07-20T00:12:32.347Z,17.48
2018-07-20T00:13:33.180Z,17.48
2018-07-20T00:14:53.726Z,17.48
2018-07-20T00:15:54.871Z,17.48
2018-07-20T00:17:27.932Z,17.48
2018-07-20T00:21:48.607Z,17.39
2018-07-20T00:22:50.263Z,17.38
2018-07-20T00:23:48.695Z,17.34
2018-07-20T00:24:49.554Z,17.34
2018-07-20T00:25:49.231Z,17.33
2018-07-20T00:26:51.069Z,17.31
2018-07-20T00:27:49.393Z,17.30
2018-07-20T00:28:49.891Z,17.30
2018-07-20T00:29:50.049Z,17.29
2018-07-20T00:30:49.651Z,17.27
2018-07-20T00:31:49.748Z,17.27
2018-07-20T00:32:49.933Z,17.29
2018-07-20T00:33:49.615Z,17.27
2018-07-20T00:34:49.606Z,17.27
2018-07-20T00:35:49.652Z,17.26
2018-07-20T00:36:49.488Z,17.27
2018-07-20T00:37:49.129Z,17.26
2018-07-20T00:38:49.493Z,17.30
2018-07-20T00:39:49.167Z,17.30
2018-07-20T00:40:48.914Z,17.34
2018-07-20T00:41:49.999Z,17.34
2018-07-20T00:42:49.025Z,17.34
2018-07-20T00:43:50.027Z,17.38
2018-07-20T00:44:48.907Z,17.36
2018-07-20T00:45:50.537Z,17.39
2018-07-20T00:46:49.609Z,17.36
2018-07-20T00:47:49.236Z,17.36
2018-07-20T00:48:49.183Z,17.36
2018-07-20T00:49:48.926Z,17.33
2018-07-20T00:50:49.897Z,17.34
2018-07-20T00:51:49.008Z,17.31
2018-07-20T00:52:48.651Z,17.29
2018-07-20T00:53:49.414Z,17.30
2018-07-20T00:54:49.433Z,17.29
2018-07-20T00:55:49.507Z,17.30
2018-07-20T00:56:49.503Z,17.27
2018-07-20T00:57:49.545Z,17.27
2018-07-20T00:58:49.249Z,17.29
2018-07-20T00:59:49.233Z,17.29
2018-07-20T01:00:49.199Z,17.27
2018-07-20T01:01:49.064Z,17.24
2018-07-20T01:03:10.475Z,17.26
2018-07-20T01:04:30.557Z,17.23
2018-07-20T01:05:30.319Z,17.23
2018-07-20T01:06:31.425Z,17.23
2018-07-20T01:07:31.304Z,17.24
2018-07-20T01:08:31.424Z,17.22
2018-07-20T01:09:31.491Z,17.20
2018-07-20T01:10:30.263Z,17.20
2018-07-20T01:12:11.865Z,17.22
2018-07-20T01:13:12.980Z,17.19
2018-07-20T01:14:13.144Z,17.16
2018-07-20T01:15:11.910Z,17.15
2018-07-20T01:16:12.524Z,17.14
2018-07-20T01:17:32.468Z,17.15
2018-07-20T01:19:14.851Z,17.15
2018-07-20T01:20:14.526Z,17.15
2018-07-20T01:21:15.168Z,17.12
2018-07-20T01:22:35.599Z,17.14
2018-07-20T01:23:35.259Z,17.12
2018-07-20T01:24:36.178Z,17.12
2018-07-20T01:25:35.808Z,17.09
2018-07-20T01:26:35.360Z,17.06
2018-07-20T01:27:56.648Z,17.05
2018-07-20T01:28:57.337Z,17.05
2018-07-20T01:29:57.027Z,17.05
2018-07-20T01:30:57.924Z,17.05
2018-07-20T01:31:58.137Z,17.02
2018-07-20T01:33:17.567Z,16.97
2018-07-20T01:34:18.467Z,16.94
2018-07-20T01:35:18.455Z,16.93
2018-07-20T01:36:18.539Z,16.91
2018-07-20T01:37:18.142Z,16.89
2018-07-20T01:38:18.026Z,16.90
2018-07-20T01:39:18.778Z,16.87
2018-07-20T01:40:18.504Z,16.84
2018-07-20T01:41:18.011Z,16.83
2018-07-20T01:42:17.643Z,16.81
2018-07-20T01:43:18.544Z,16.78
2018-07-20T01:44:39.017Z,16.76
2018-07-20T01:45:38.650Z,16.74
2018-07-20T01:46:39.274Z,16.72
2018-07-20T01:47:39.316Z,16.74
2018-07-20T01:48:38.925Z,16.74
2018-07-20T01:49:39.922Z,16.72
2018-07-20T01:50:39.476Z,16.71
2018-07-20T01:51:39.387Z,16.69
2018-07-20T01:52:38.935Z,16.71
2018-07-20T01:53:39.554Z,16.71
2018-07-20T01:54:39.136Z,16.68
2018-07-20T01:55:43.812Z,16.64
2018-07-20T01:56:39.452Z,16.61
2018-07-20T01:57:38.938Z,16.61
2018-07-20T01:58:39.819Z,16.68
2018-07-20T01:59:39.721Z,16.65
2018-07-20T02:00:39.510Z,16.64
2018-07-20T02:01:39.628Z,16.66
2018-07-20T02:02:39.628Z,16.61
2018-07-20T02:03:39.210Z,16.58
2018-07-20T02:04:59.652Z,16.57
2018-07-20T02:06:20.935Z,16.56
2018-07-20T02:07:22.141Z,16.51
2018-07-20T02:08:22.138Z,16.49
2018-07-20T02:09:21.760Z,16.46
2018-07-20T02:10:21.459Z,16.46
2018-07-20T02:11:20.955Z,16.46
2018-07-20T02:12:21.565Z,16.46
2018-07-20T02:13:21.326Z,16.47
2018-07-20T02:14:42.658Z,16.47
2018-07-20T02:16:04.328Z,16.46
2018-07-20T02:17:05.321Z,16.46
2018-07-20T02:18:05.201Z,16.42
2018-07-20T02:19:46.424Z,16.38
2018-07-20T02:20:47.398Z,16.35
2018-07-20T02:21:47.437Z,16.35
2018-07-20T02:22:47.055Z,16.33
2018-07-20T02:23:46.608Z,16.32
2018-07-20T02:24:46.788Z,16.28
2018-07-20T02:25:46.841Z,16.21
2018-07-20T02:26:46.710Z,16.17
2018-07-20T02:27:46.514Z,16.15
2018-07-20T02:28:46.108Z,16.15
2018-07-20T02:29:47.247Z,16.13
2018-07-20T02:30:46.849Z,16.15
2018-07-20T02:32:07.467Z,16.12
2018-07-20T02:33:08.048Z,16.12
2018-07-20T02:34:08.100Z,16.09
2018-07-20T02:35:07.833Z,16.09
2018-07-20T02:36:28.448Z,16.08
2018-07-20T02:37:28.109Z,16.10
2018-07-20T02:38:28.784Z,16.08
2018-07-20T02:39:28.379Z,16.08
2018-07-20T02:40:28.439Z,16.08
2018-07-20T02:41:27.973Z,16.08
2018-07-20T02:42:48.925Z,16.09
2018-07-20T02:43:49.583Z,16.09
2018-07-20T02:44:49.068Z,16.09
2018-07-20T02:45:49.747Z,16.09
2018-07-20T02:46:49.207Z,16.10
2018-07-20T02:47:49.505Z,16.13
2018-07-20T02:48:49.119Z,16.12
2018-07-20T02:50:10.849Z,16.12
2018-07-20T02:51:32.647Z,16.09
2018-07-20T02:52:32.310Z,16.08
2018-07-20T02:53:33.021Z,16.08
2018-07-20T02:55:35.347Z,16.09
2018-07-20T02:56:35.047Z,16.08
2018-07-20T02:57:35.785Z,16.05
2018-07-20T02:58:36.051Z,16.05
2018-07-20T02:59:56.417Z,16.04
2018-07-20T03:00:57.087Z,16.01
2018-07-20T03:01:56.863Z,16.01
2018-07-20T03:02:56.890Z,16.00
2018-07-20T03:03:56.636Z,15.98
2018-07-20T03:04:57.276Z,15.98
2018-07-20T03:05:57.139Z,16.01
2018-07-20T03:06:56.957Z,16.01
2018-07-20T03:07:57.009Z,15.98
2018-07-20T03:08:57.765Z,15.97
2018-07-20T03:09:56.388Z,15.97
2018-07-20T03:10:57.527Z,16.00
2018-07-20T03:11:57.485Z,16.02
2018-07-20T03:12:57.311Z,16.02
2018-07-20T03:13:56.935Z,16.01
2018-07-20T03:14:57.006Z,16.01
2018-07-20T03:15:57.115Z,16.01
2018-07-20T03:17:17.119Z,15.98
2018-07-20T03:18:18.191Z,15.95
2018-07-20T03:19:18.318Z,15.92
2018-07-20T03:20:18.298Z,15.91
2018-07-20T03:21:18.401Z,15.91
2018-07-20T03:22:17.276Z,15.91
2018-07-20T03:23:18.285Z,15.90
2018-07-20T03:24:17.977Z,15.90
2018-07-20T03:25:17.584Z,15.91
2018-07-20T03:26:17.307Z,15.91
2018-07-20T03:27:18.294Z,15.91
2018-07-20T03:28:17.812Z,15.91
2018-07-20T03:29:17.676Z,15.94
2018-07-20T03:30:38.749Z,15.98
2018-07-20T03:31:38.416Z,15.97
2018-07-20T03:32:39.101Z,16.00
2018-07-20T03:33:38.792Z,15.98
2018-07-20T03:34:59.368Z,16.00
2018-07-20T03:36:00.201Z,15.98
2018-07-20T03:36:59.865Z,15.97
2018-07-20T03:38:00.949Z,15.95
2018-07-20T03:38:59.494Z,15.94
2018-07-20T03:40:00.288Z,15.92
2018-07-20T03:40:59.920Z,15.92
2018-07-20T03:42:00.035Z,15.91
2018-07-20T03:43:00.145Z,15.91
2018-07-20T03:43:59.618Z,15.91
2018-07-20T03:44:59.302Z,15.90
2018-07-20T03:46:00.036Z,15.91
2018-07-20T03:47:00.237Z,15.91
2018-07-20T03:48:00.054Z,15.91
2018-07-20T03:48:59.816Z,15.90
2018-07-20T03:49:59.452Z,15.91
2018-07-20T03:51:21.339Z,15.90
2018-07-20T03:52:21.445Z,15.88
2018-07-20T03:53:21.584Z,15.86
2018-07-20T03:54:21.412Z,15.88
2018-07-20T03:55:21.373Z,15.88
2018-07-20T03:56:21.074Z,15.90
2018-07-20T03:57:21.964Z,15.90
2018-07-20T03:58:21.640Z,15.90
2018-07-20T03:59:42.072Z,15.94
2018-07-20T04:00:43.298Z,15.98
2018-07-20T04:01:42.852Z,16.00
2018-07-20T04:02:42.511Z,16.01
2018-07-20T04:03:42.495Z,16.02
2018-07-20T04:04:42.696Z,16.02
2018-07-20T04:05:42.754Z,16.04
2018-07-20T04:06:42.432Z,16.08
2018-07-20T04:07:43.779Z,16.05
2018-07-20T04:08:42.438Z,16.08
2018-07-20T04:09:42.591Z,16.08
2018-07-20T04:10:42.375Z,16.09
2018-07-20T04:11:42.523Z,16.09
2018-07-20T04:12:42.438Z,16.13
2018-07-20T04:13:42.217Z,16.13
2018-07-20T04:14:43.257Z,16.13
2018-07-20T04:15:42.058Z,16.12
2018-07-20T04:16:43.332Z,16.13
2018-07-20T04:17:42.527Z,16.12
2018-07-20T04:18:43.912Z,16.15
2018-07-20T04:19:42.906Z,16.16
2018-07-20T04:20:42.959Z,16.17
2018-07-20T04:21:42.834Z,16.16
2018-07-20T04:22:42.417Z,16.20
2018-07-20T04:23:42.167Z,16.21
2018-07-20T04:24:42.904Z,16.26
2018-07-20T04:25:43.023Z,16.26
2018-07-20T04:26:42.794Z,16.28
2018-07-20T04:27:42.356Z,16.29
2018-07-20T04:28:42.228Z,16.32
2018-07-20T04:29:41.982Z,16.35
2018-07-20T04:30:43.264Z,16.36
2018-07-20T04:31:42.462Z,16.39
2018-07-20T04:32:42.485Z,16.41
2018-07-20T04:33:42.473Z,16.43
2018-07-20T04:34:42.402Z,16.43
2018-07-20T04:35:42.626Z,16.43
2018-07-20T04:36:42.286Z,16.46
2018-07-20T04:37:42.314Z,16.50
2018-07-20T04:38:42.275Z,16.53
2018-07-20T04:39:43.482Z,16.56
2018-07-20T04:40:42.235Z,16.51
2018-07-20T04:41:42.764Z,16.51
2018-07-20T04:42:42.824Z,16.53
2018-07-20T04:43:43.175Z,16.54
2018-07-20T04:44:42.555Z,16.57
2018-07-20T04:45:42.267Z,16.58
2018-07-20T04:46:42.130Z,16.60
2018-07-20T04:47:43.187Z,16.64
2018-07-20T04:48:44.961Z,16.61
2018-07-20T04:49:42.790Z,16.61
2018-07-20T04:50:43.047Z,16.61
2018-07-20T04:51:44.418Z,16.64
2018-07-20T04:52:43.465Z,16.69
2018-07-20T04:53:42.231Z,16.71
2018-07-20T04:54:41.989Z,16.69
2018-07-20T04:55:43.025Z,16.72
2018-07-20T04:56:43.075Z,16.69
2018-07-20T04:57:42.100Z,16.68
2018-07-20T04:58:56.916Z,16.68
2018-07-20T04:59:43.167Z,16.69
2018-07-20T05:00:43.187Z,16.74
2018-07-20T05:01:42.346Z,16.86
2018-07-20T05:02:42.334Z,16.83
2018-07-20T05:04:03.180Z,16.86
2018-07-20T05:05:03.419Z,16.93
2018-07-20T05:06:23.929Z,16.94
2018-07-20T05:07:24.797Z,16.97
2018-07-20T05:08:24.501Z,16.96
2018-07-20T05:09:24.642Z,16.97
2018-07-20T05:10:24.735Z,17.05
2018-07-20T05:11:27.436Z,17.14
2018-07-20T05:12:24.749Z,17.19
2018-07-20T05:13:24.814Z,17.20
2018-07-20T05:14:24.735Z,17.23
2018-07-20T05:15:24.998Z,17.31
2018-07-20T05:16:24.915Z,17.44
2018-07-20T05:17:24.565Z,17.49
2018-07-20T05:18:24.641Z,17.54
2018-07-20T05:19:24.673Z,17.59
2018-07-20T05:20:24.835Z,17.68
2018-07-20T05:21:24.553Z,17.74
2018-07-20T05:22:24.412Z,17.80
2018-07-20T05:23:24.586Z,17.82
2018-07-20T05:24:25.823Z,17.85
2018-07-20T05:25:24.683Z,17.86
2018-07-20T05:26:24.680Z,17.87
2018-07-20T05:27:24.299Z,17.94
2018-07-20T05:28:45.273Z,17.95
2018-07-20T05:29:46.112Z,17.98
2018-07-20T05:30:46.331Z,18.00
2018-07-20T05:31:46.406Z,18.07
2018-07-20T05:33:05.744Z,18.10
2018-07-20T05:34:07.052Z,18.16
2018-07-20T05:35:06.312Z,18.25
2018-07-20T05:36:06.462Z,18.29
2018-07-20T05:37:06.267Z,18.34
2018-07-20T05:38:06.318Z,18.23
2018-07-20T05:39:06.085Z,18.18
2018-07-20T05:40:26.703Z,18.16
2018-07-20T05:41:47.945Z,18.22
2018-07-20T05:42:49.161Z,18.25
2018-07-20T05:43:49.581Z,18.23
2018-07-20T05:44:48.772Z,18.22
2018-07-20T05:45:48.908Z,18.25
2018-07-20T05:46:49.762Z,18.34
2018-07-20T05:47:49.046Z,18.41
2018-07-20T05:48:49.351Z,18.45
2018-07-20T05:49:49.453Z,18.59
2018-07-20T05:50:48.901Z,18.71
2018-07-20T05:51:48.791Z,18.93
2018-07-20T05:52:49.040Z,19.12
2018-07-20T05:53:48.899Z,19.22
2018-07-20T05:54:49.094Z,19.36
2018-07-20T05:55:49.089Z,19.49
2018-07-20T05:56:48.975Z,19.54
2018-07-20T05:57:48.828Z,19.55
2018-07-20T05:58:48.835Z,19.69
2018-07-20T05:59:49.658Z,19.79
2018-07-20T06:00:51.054Z,19.89
2018-07-20T06:01:52.403Z,20.04
2018-07-20T06:03:09.100Z,20.21
2018-07-20T06:04:10.375Z,20.19
2018-07-20T06:05:09.579Z,20.09
2018-07-20T06:06:30.872Z,20.07
2018-07-20T06:07:30.886Z,20.00
2018-07-20T06:08:51.462Z,19.91
2018-07-20T06:09:52.757Z,19.89
2018-07-20T06:10:51.777Z,19.88
2018-07-20T06:11:51.563Z,19.84
2018-07-20T06:12:53.226Z,19.96
2018-07-20T06:14:13.475Z,19.89
2018-07-20T06:15:13.746Z,19.84
2018-07-20T06:16:13.963Z,19.76
2018-07-20T06:17:14.350Z,19.77
2018-07-20T06:18:35.566Z,19.67
2018-07-20T06:19:34.806Z,19.59
2018-07-20T06:20:55.588Z,19.79
2018-07-20T06:21:56.543Z,19.88
2018-07-20T06:22:56.283Z,19.88
2018-07-20T06:23:56.774Z,19.86
2018-07-20T06:24:56.081Z,19.89
2018-07-20T06:25:56.497Z,20.04
2018-07-20T06:26:58.095Z,20.28
2018-07-20T06:28:01.460Z,20.28
2018-07-20T06:29:03.710Z,20.22
2018-07-20T06:29:59.918Z,20.18
2018-07-20T06:31:02.852Z,20.48
2018-07-20T06:31:56.029Z,20.72
2018-07-20T06:32:55.812Z,20.66
2018-07-20T06:33:55.613Z,20.63
2018-07-20T06:34:56.366Z,20.55
2018-07-20T06:35:56.229Z,20.77
2018-07-20T06:36:57.599Z,21.21
2018-07-20T06:38:17.437Z,21.54
2018-07-20T06:39:18.226Z,21.85
2018-07-20T06:40:18.206Z,21.99
2018-07-20T06:41:18.067Z,21.89
2018-07-20T06:42:18.165Z,21.89
2018-07-20T06:43:59.064Z,21.80
2018-07-20T06:44:59.714Z,22.18
2018-07-20T06:46:20.688Z,22.57
2018-07-20T06:47:20.716Z,22.60
2018-07-20T06:48:20.659Z,22.63
2018-07-20T06:49:20.378Z,22.57
2018-07-20T06:50:21.903Z,22.41
2018-07-20T06:51:21.048Z,22.60
2018-07-20T06:52:21.445Z,22.73
2018-07-20T06:53:20.772Z,22.54
2018-07-20T06:54:21.187Z,22.51
2018-07-20T06:55:42.385Z,22.68
2018-07-20T06:57:03.437Z,22.80
2018-07-20T06:58:03.801Z,22.80
2018-07-20T06:59:04.206Z,22.91
2018-07-20T07:00:03.096Z,23.25
2018-07-20T07:01:03.823Z,23.40
2018-07-20T07:02:04.012Z,23.74
2018-07-20T07:03:03.878Z,24.08
2018-07-20T07:04:04.293Z,24.55
2018-07-20T07:05:03.723Z,25.03
2018-07-20T07:06:03.737Z,25.25
2018-07-20T07:07:04.020Z,25.53
2018-07-20T07:08:04.290Z,25.54
2018-07-20T07:09:03.741Z,25.75
2018-07-20T07:10:03.596Z,25.44
2018-07-20T07:11:03.924Z,25.13
2018-07-20T07:12:03.857Z,24.95
2018-07-20T07:13:26.358Z,24.91
2018-07-20T07:14:27.405Z,24.61
2018-07-20T07:15:25.889Z,24.50
2018-07-20T07:16:24.991Z,24.55
2018-07-20T07:17:26.409Z,24.60
2018-07-20T07:18:46.501Z,24.51
2018-07-20T07:19:46.209Z,24.57
2018-07-20T07:20:47.519Z,24.57
2018-07-20T07:21:46.178Z,24.53
2018-07-20T07:22:47.694Z,24.35
2018-07-20T07:23:47.612Z,24.20
2018-07-20T07:24:47.033Z,24.26
2018-07-20T07:25:46.945Z,24.35
2018-07-20T07:26:49.038Z,24.43
2018-07-20T07:27:47.584Z,24.55
2018-07-20T07:28:46.536Z,24.84
2018-07-20T07:29:46.660Z,24.84
2018-07-20T07:30:46.961Z,25.04
2018-07-20T07:31:46.697Z,25.26
2018-07-20T07:32:46.929Z,25.50
2018-07-20T07:33:47.297Z,25.59
2018-07-20T07:35:06.986Z,25.73
2018-07-20T07:36:28.962Z,25.91
2018-07-20T07:38:11.022Z,26.15
2018-07-20T07:39:11.392Z,26.40
2018-07-20T07:40:11.493Z,26.56
2018-07-20T07:41:11.937Z,26.80
2018-07-20T07:42:12.363Z,26.93
2018-07-20T07:43:11.760Z,26.99
2018-07-20T07:44:11.853Z,27.10
2018-07-20T07:45:11.755Z,27.21
2018-07-20T07:46:11.752Z,27.44
2018-07-20T07:47:32.975Z,27.40
2018-07-20T07:48:54.397Z,27.59
2018-07-20T07:49:55.798Z,27.58
2018-07-20T07:50:55.289Z,27.52
2018-07-20T07:51:55.935Z,27.68
2018-07-20T07:52:55.059Z,27.83
2018-07-20T07:53:55.386Z,28.01
2018-07-20T07:54:55.381Z,27.71
2018-07-20T07:55:56.115Z,27.65
2018-07-20T07:56:56.567Z,27.93
2018-07-20T07:57:54.474Z,28.11
2018-07-20T07:58:54.828Z,28.27
2018-07-20T08:00:00.507Z,28.33
2018-07-20T08:00:56.144Z,28.62
2018-07-20T08:01:56.507Z,28.76
2018-07-20T08:02:56.167Z,28.82
2018-07-20T08:03:57.060Z,28.86
2018-07-20T08:04:56.011Z,29.02
2018-07-20T08:06:17.489Z,29.20
2018-07-20T08:07:19.601Z,29.36
2018-07-20T08:08:19.792Z,29.60
2018-07-20T08:09:18.541Z,29.76
2018-07-20T08:10:18.349Z,29.93
2018-07-20T08:11:17.850Z,29.90
2018-07-20T08:12:18.018Z,30.00
2018-07-20T08:13:17.427Z,29.93
2018-07-20T08:14:17.599Z,30.05
2018-07-20T08:15:25.564Z,30.09
2018-07-20T08:16:17.499Z,30.31
2018-07-20T08:17:17.862Z,30.35
2018-07-20T08:18:18.223Z,30.46
2018-07-20T08:19:17.335Z,30.44
2018-07-20T08:20:39.273Z,30.62
2018-07-20T08:21:40.346Z,30.72
2018-07-20T08:22:39.672Z,30.81
2018-07-20T08:24:02.798Z,31.18
2018-07-20T08:25:01.824Z,31.40
2018-07-20T08:26:03.830Z,31.42
2018-07-20T08:27:22.613Z,31.46
2018-07-20T08:28:23.062Z,31.65
2018-07-20T08:29:23.619Z,31.66
2018-07-20T08:30:23.247Z,31.71
2018-07-20T08:31:22.446Z,31.90
2018-07-20T08:32:22.647Z,31.74
2018-07-20T08:33:22.421Z,31.97
2018-07-20T08:34:22.662Z,32.08
2018-07-20T08:35:22.434Z,31.81
2018-07-20T08:36:22.235Z,31.93
2018-07-20T08:37:22.721Z,32.12
2018-07-20T08:38:22.661Z,32.26
2018-07-20T08:39:22.621Z,32.12
2018-07-20T08:40:22.828Z,32.16
2018-07-20T08:41:44.054Z,32.07
2018-07-20T08:42:44.915Z,32.16
2018-07-20T08:43:44.275Z,32.34
2018-07-20T08:44:44.661Z,32.37
2018-07-20T08:45:44.483Z,32.51
2018-07-20T08:46:44.717Z,32.74
2018-07-20T08:47:44.031Z,33.02
2018-07-20T08:48:44.031Z,32.95
2018-07-20T08:49:43.987Z,32.93
2018-07-20T08:50:43.815Z,32.97
2018-07-20T08:51:44.158Z,33.22
2018-07-20T08:52:44.367Z,33.47
2018-07-20T08:53:44.435Z,33.58
2018-07-20T08:54:44.944Z,33.67
2018-07-20T08:55:43.963Z,33.58
2018-07-20T08:57:04.741Z,33.28
2018-07-20T08:58:04.809Z,33.31
2018-07-20T08:59:26.701Z,33.77
2018-07-20T09:00:47.950Z,34.10
2018-07-20T09:01:48.752Z,34.27
2018-07-20T09:02:48.672Z,34.54
2018-07-20T09:03:48.951Z,34.58
2018-07-20T09:04:48.291Z,34.60
2018-07-20T09:05:48.552Z,34.86
2018-07-20T09:06:48.706Z,34.81
2018-07-20T09:07:49.015Z,34.66
2018-07-20T09:08:47.917Z,34.77
2018-07-20T09:09:48.375Z,34.93
2018-07-20T09:10:48.575Z,34.96
2018-07-20T09:11:48.380Z,35.10
2018-07-20T09:12:48.192Z,35.30
2018-07-20T09:13:48.535Z,35.52
2018-07-20T09:14:48.748Z,35.52
2018-07-20T09:16:10.476Z,35.71
2018-07-20T09:17:31.578Z,35.53
2018-07-20T09:18:32.111Z,35.41
2018-07-20T09:19:31.654Z,35.42
2018-07-20T09:20:31.664Z,35.33
2018-07-20T09:21:31.752Z,35.34
2018-07-20T09:22:54.307Z,35.04
2018-07-20T09:23:54.080Z,34.92
2018-07-20T09:25:15.821Z,34.96
2018-07-20T09:26:16.026Z,35.05
2018-07-20T09:27:16.010Z,34.92
2018-07-20T09:28:16.549Z,34.89
2018-07-20T09:29:36.719Z,34.73
2018-07-20T09:30:57.962Z,34.42
2018-07-20T09:33:02.688Z,34.02
2018-07-20T09:34:03.240Z,34.13
2018-07-20T10:19:01.462Z,36.36
2018-07-20T10:21:05.140Z,36.52
2018-07-20T10:22:05.288Z,36.84
2018-07-20T10:23:05.547Z,36.93
2018-07-20T10:24:05.884Z,36.89
2018-07-20T10:25:04.865Z,36.47
2018-07-20T10:26:04.673Z,36.09
2018-07-20T10:27:04.842Z,36.01
2018-07-20T10:28:04.783Z,36.00
2018-07-20T10:29:25.727Z,36.37
2018-07-20T10:30:46.618Z,37.01
2018-07-20T10:31:47.601Z,36.95
2018-07-20T10:32:47.534Z,37.07
2018-07-20T10:33:47.840Z,36.88
2018-07-20T10:34:46.863Z,36.76
2018-07-20T10:35:47.891Z,36.54
2018-07-20T10:37:07.851Z,36.31
2018-07-20T10:38:08.597Z,36.54
2018-07-20T10:39:08.751Z,36.47
2018-07-20T10:40:09.024Z,36.81
2018-07-20T10:41:08.077Z,37.10
2018-07-20T10:42:08.227Z,37.20
2018-07-20T10:43:08.612Z,37.49
2018-07-20T10:44:07.996Z,37.71
2018-07-20T10:45:10.999Z,38.05
2018-07-20T10:46:11.041Z,38.30
2018-07-20T10:47:41.852Z,38.46
2018-07-20T10:48:41.014Z,38.76
2018-07-20T10:49:38.942Z,38.73
2018-07-20T10:50:41.976Z,38.80
2018-07-20T10:51:38.962Z,38.79
2018-07-20T10:52:36.578Z,38.76
2018-07-20T10:53:38.087Z,38.71
2018-07-20T10:55:14.774Z,38.60
2018-07-20T10:56:24.886Z,38.49
2018-07-20T10:57:12.574Z,38.57
2018-07-20T10:58:12.629Z,38.80
2018-07-20T10:59:32.158Z,38.92
2018-07-20T11:00:07.175Z,39.06
2018-07-20T11:01:27.661Z,39.11
2018-07-20T11:02:28.810Z,39.12
2018-07-20T11:03:27.696Z,39.03
2018-07-20T11:04:28.020Z,38.82
2018-07-20T11:05:27.907Z,38.82
2018-07-20T11:06:28.433Z,39.12
2018-07-20T11:07:49.156Z,39.48
2018-07-20T11:09:11.311Z,39.46
2018-07-20T11:10:11.587Z,39.12
2018-07-20T11:11:32.957Z,38.62
2018-07-20T11:12:32.860Z,38.08
2018-07-20T11:13:54.055Z,37.17
2018-07-20T11:14:54.066Z,36.80
2018-07-20T11:15:53.804Z,36.59
2018-07-20T11:17:16.534Z,36.67
2018-07-20T11:18:16.865Z,36.62
2018-07-20T11:19:15.750Z,36.65
2018-07-20T11:20:15.638Z,36.47
2018-07-20T11:21:15.947Z,36.28
2018-07-20T11:22:16.217Z,36.27
2018-07-20T11:23:16.499Z,36.27
2018-07-20T11:24:16.224Z,36.27
2018-07-20T11:25:16.351Z,36.01
2018-07-20T11:26:16.056Z,35.73
2018-07-20T11:27:16.484Z,35.56
2018-07-20T11:28:37.789Z,35.37
2018-07-20T11:29:37.919Z,35.64
2018-07-20T11:30:58.337Z,35.73
2018-07-20T11:31:59.252Z,35.80
2018-07-20T11:32:59.551Z,35.93
2018-07-20T11:33:59.642Z,36.00
2018-07-20T11:34:58.522Z,36.09
2018-07-20T11:35:59.735Z,36.36
2018-07-20T11:36:58.716Z,36.55
2018-07-20T11:37:59.184Z,36.62
2018-07-20T11:38:59.033Z,36.70
2018-07-20T11:39:59.537Z,37.13
2018-07-20T11:40:58.691Z,37.53
2018-07-20T11:41:59.111Z,37.93
2018-07-20T11:42:59.424Z,38.01
2018-07-20T11:43:58.414Z,38.19
2018-07-20T11:44:58.411Z,38.49
2018-07-20T11:45:59.529Z,38.19
2018-07-20T11:46:58.735Z,38.20
2018-07-20T11:47:58.735Z,38.20
2018-07-20T11:49:01.878Z,37.99
2018-07-20T11:49:59.300Z,38.26
2018-07-20T11:50:59.941Z,38.45
2018-07-20T11:52:02.411Z,38.30
2018-07-20T11:52:58.970Z,38.46
2018-07-20T11:53:59.256Z,38.49
2018-07-20T11:54:59.528Z,38.50
2018-07-20T11:55:58.718Z,38.67
2018-07-20T11:58:03.306Z,38.80
2018-07-20T11:59:03.622Z,38.74
2018-07-20T12:00:04.057Z,38.96
2018-07-20T12:01:03.837Z,38.83
2018-07-20T12:02:04.045Z,38.95
2018-07-20T12:03:03.359Z,38.80
2018-07-20T12:04:04.104Z,38.31
2018-07-20T12:05:03.116Z,37.93
2018-07-20T12:06:03.947Z,37.48
2018-07-20T12:07:03.065Z,37.48
2018-07-20T12:08:03.081Z,37.15
2018-07-20T12:09:03.338Z,36.73
2018-07-20T12:10:03.357Z,36.49
2018-07-20T12:11:03.766Z,36.23
2018-07-20T12:12:04.186Z,36.61
2018-07-20T12:13:03.626Z,36.96
2018-07-20T12:14:04.159Z,37.42
2018-07-20T12:15:03.896Z,37.86
2018-07-20T12:16:04.255Z,37.80
2018-07-20T12:17:03.847Z,37.32
2018-07-20T12:18:04.008Z,36.73
2018-07-20T12:19:03.971Z,36.27
2018-07-20T12:20:04.086Z,36.43
2018-07-20T12:21:04.289Z,36.59
2018-07-20T12:22:26.088Z,36.64
2018-07-20T12:23:26.650Z,36.91
2018-07-20T12:24:25.996Z,37.26
2018-07-20T12:25:26.287Z,37.47
2018-07-20T12:26:26.959Z,37.59
2018-07-20T12:27:26.232Z,37.48
2018-07-20T12:28:26.781Z,37.48
2018-07-20T12:29:47.223Z,37.60
2018-07-20T12:30:47.363Z,37.70
2018-07-20T12:31:47.443Z,37.71
2018-07-20T12:32:49.158Z,37.55
2018-07-20T12:34:09.520Z,37.23
2018-07-20T12:35:30.486Z,36.80
2018-07-20T12:36:31.167Z,36.86
2018-07-20T12:37:31.939Z,36.92
2018-07-20T12:38:31.740Z,36.91
2018-07-20T12:39:31.283Z,36.70
2018-07-20T12:40:52.337Z,36.30
2018-07-20T12:41:53.200Z,35.97
2018-07-20T12:42:53.119Z,36.07
2018-07-20T12:44:13.962Z,36.28
2018-07-20T12:45:14.976Z,36.52
2018-07-20T12:46:16.104Z,36.37
2018-07-20T12:47:14.520Z,35.76
2018-07-20T12:48:14.898Z,34.93
2018-07-20T12:49:14.851Z,34.58
2018-07-20T12:50:16.597Z,34.47
2018-07-20T12:51:14.659Z,34.66
2018-07-20T12:52:35.417Z,35.04
2018-07-20T12:53:56.989Z,35.26
2018-07-20T12:55:18.668Z,35.42
2018-07-20T12:56:19.506Z,35.42
2018-07-20T12:57:20.575Z,35.51
2018-07-20T12:58:19.898Z,35.29
2018-07-20T12:59:18.906Z,35.19
2018-07-20T13:00:19.951Z,35.22
2018-07-20T13:01:18.918Z,35.45
2018-07-20T13:02:20.125Z,35.71
2018-07-20T13:03:19.376Z,35.71
2018-07-20T13:04:19.448Z,35.33
2018-07-20T13:05:39.150Z,34.96
2018-07-20T13:07:05.381Z,35.00
2018-07-20T13:08:02.009Z,35.45
2018-07-20T13:09:03.234Z,35.60
2018-07-20T13:10:01.474Z,35.71
2018-07-20T13:11:01.621Z,35.64
2018-07-20T13:12:22.655Z,35.44
2018-07-20T13:13:22.879Z,35.18
2018-07-20T13:14:23.290Z,34.93
2018-07-20T13:15:23.598Z,35.11
2018-07-20T13:16:23.710Z,35.58
2018-07-20T13:17:44.513Z,36.07
2018-07-20T13:18:44.579Z,36.27
2018-07-20T13:20:05.639Z,36.51
2018-07-20T13:21:06.798Z,36.45
2018-07-20T13:22:06.607Z,36.54
2018-07-20T13:23:07.120Z,36.57
2018-07-20T13:24:06.689Z,36.68
2018-07-20T13:25:06.652Z,36.76
2018-07-20T13:26:06.935Z,37.06
2018-07-20T13:27:26.870Z,37.53
2018-07-20T13:28:26.865Z,37.80
2018-07-20T13:29:27.236Z,37.53
2018-07-20T13:30:27.604Z,36.76
2018-07-20T13:31:27.381Z,36.25
2018-07-20T13:32:28.205Z,35.93
2018-07-20T13:33:27.433Z,35.58
2018-07-20T13:34:27.280Z,35.27
2018-07-20T13:35:27.595Z,35.07
2018-07-20T13:36:26.981Z,34.80
2018-07-20T13:37:27.203Z,34.73
2018-07-20T13:38:27.343Z,34.75
2018-07-20T13:39:27.193Z,34.66
2018-07-20T13:40:27.480Z,34.89
2018-07-20T13:41:27.410Z,35.33
2018-07-20T13:42:31.415Z,35.78
2018-07-20T13:43:26.435Z,36.08
2018-07-20T13:44:27.340Z,36.12
2018-07-20T13:45:27.324Z,36.25
2018-07-20T13:46:27.207Z,36.39
2018-07-20T13:47:27.130Z,36.51
2018-07-20T13:48:27.122Z,36.45
2018-07-20T13:49:47.626Z,36.57
2018-07-20T13:50:48.936Z,36.86
2018-07-20T13:51:47.849Z,37.08
2018-07-20T13:52:47.805Z,37.26
2018-07-20T13:53:47.921Z,37.29
2018-07-20T13:54:47.840Z,37.23
2018-07-20T13:55:48.016Z,37.06
2018-07-20T13:56:48.383Z,36.65
2018-07-20T13:57:48.727Z,36.39
2018-07-20T13:58:48.128Z,36.25
2018-07-20T13:59:49.068Z,36.28
2018-07-20T14:00:48.321Z,36.37
2018-07-20T14:01:49.822Z,36.51
2018-07-20T14:02:47.770Z,36.55
2018-07-20T14:03:48.624Z,36.57
2018-07-20T14:04:47.704Z,36.55
2018-07-20T14:05:48.569Z,36.40
2018-07-20T14:06:48.881Z,36.24
2018-07-20T14:07:47.790Z,36.27
2018-07-20T14:08:48.182Z,36.24
2018-07-20T14:09:48.604Z,36.24
2018-07-20T14:10:48.618Z,36.46
2018-07-20T14:11:48.698Z,36.83
2018-07-20T14:13:29.214Z,36.62
2018-07-20T14:14:29.152Z,36.83
2018-07-20T14:15:30.359Z,36.80
2018-07-20T14:16:50.481Z,37.02
2018-07-20T14:17:50.649Z,36.88
2018-07-20T14:18:50.563Z,36.77
2018-07-20T14:19:51.475Z,36.65
2018-07-20T14:20:50.808Z,36.68
2018-07-20T14:21:50.920Z,36.81